Round Rock, TX (78664)

5:25 AM CST on February 08, 2016 (GMT -0600)
Voigt Elementary School | | Change Station
CLOSE
Current Station
Personal Weather Station
Location: Round Rock, TX
Elevation: 768 ft
Nearby Weather Stations
Active Advisory: Fire Weather Warning

Elev 768 ft 30.50 °N, 97.68 °W | Updated 3 minutes ago

Clear
Clear
46.4 °F
Feels Like 44 °F
N
4.7
Wind Variable Wind from NE

Today
High -- | Low -- °F
--% Chance of Precip.
Yesterday
High -- | Low -- °F
Precip. -- in
Pressure 30.31 in
Visibility 10.0 miles
Clouds Few 5000 ft
Windchill 44 °F
Dew Point 28 °F
Humidity 48%
Rainfall 0.00 in
Snow Depth Not available.
7:17 AM 6:12 PM
Waning Crescent, 0% visible
METAR KEDC 081115Z AUTO 36014KT 10SM FEW050 08/M03 A3031 RMK AO2
Pressure 30.31 in
Visibility 10.0 miles
Clouds Few 5000 ft
Windchill 44 °F
Dew Point 28 °F
Humidity 48%
Rainfall 0.00 in
Snow Depth Not available.
7:17 AM 6:12 PM
Waning Crescent, 0% visible
METAR KEDC 081115Z AUTO 36014KT 10SM FEW050 08/M03 A3031 RMK AO2

10-Day Weather Forecast

Almanac

Astronomy

Feb. 08, 2016 Rise Set
Actual Time
Civil Twilight
Nautical Twilight
Astronomical Twilight
Moon
Length of Visible Light
Length of Day
Tomorrow will be .
, % of the Moon is Illuminated

Today's Extremes

State Highs State Lows

Community

WunderPhotos

Upload Photos

1,891,420 photos uploaded!

WunderBlog® & News

Nearby

Air Quality

  Air Quality AQ Index Pollutant
Not available.

Snow Depth

Station Depth Elevation

Earthquake Activity

City Distance Mag. Time & Date
Minimum magnitude displayed is 2.5.

Coastal Water Temperatures

Place Temperature

Stations

Nearby Weather Stations

Station Location Temp. Windchill Dew Point Humidity Wind Precip. Elev Updated Type
                   

Watches & Warnings

Fire Weather Warning
Issued: 5:10 AM CST Feb. 8, 2016 – National Weather Service

... Red flag warning in effect from 10 am this morning to 5 PM CST
this afternoon for gusty north winds and low humidities for fire
weather zones 171... 172... 173... 190... 191... 192... 193... 194...
208... 209... 223 and 225...

The National Weather Service in Austin/San Antonio has issued a
red flag warning... which is in effect from 10 am this morning to
5 PM CST this afternoon. The Fire Weather Watch is no longer in
effect.

* Wind... north to northwest at 15-25 mph.

* Humidity... minimum afternoon humidity falling to 15-20
percent.

* Impacts... any fires that develop will likely spread rapidly.
Outdoor burning is not recommended.

Precautionary/preparedness actions...

A red flag warning means that critical fire weather conditions
are either occurring now... or will shortly. A combination of
strong winds... low relative humidity... and warm temperatures can
contribute to extreme fire behavior.